Portada
METAR-TAF:

METAR-TAF

Aeropuertos :

Bou Saâda, Argelia

latitud: 35-20N, longitud: 004-12E, altitud: 461 m

Observación

El informe se hizo hace 4 horas y 46 minutos, a las 18:00 UTC
Viento 11 kt del oeste-suroeste
Temperatura 31°C
Humedad 36%
Presión 1018 hPa
Visibilidad: 8000 m
Nubes dispersas a una altura de 2600 ft, Cumulonimbus.
Cielo nuboso a una altura de 3000 ft
tormenta, lluvia

METAR: DAAD 181800Z 24011KT 8000 TSRA SCT026CB BKN030 31/14 Q1018

Hora: 23:46 (22:46 UTC)

Pronóstico

El informe se hizo hace 5 horas y 46 minutos, a las 17:00 UTC
Pronóstico válido del 18 a las 18 UTC al 19 a las 03 UTC
Viento 12 kt del oeste
Visibilidad 10 km o más
Escasas nubes a una altura de 2600 ft
Nubes dispersas a una altura de 20000 ft
Temporalmente
del 18 a las 18 UTC al 18 a las 21 UTC
Escasas nubes a una altura de 3000 ft, Cumulonimbus.

TAF: DAAD 181700Z 1818/1903 27012KT 9999 FEW026 SCT200 TEMPO 1818/1821 FEW030CB

Observaciones y pronósticos meteorológicos de más de 4000 aeropuertos (mensajes METAR y TAF).

Los puntos amarillos y rojos representan las estaciones disponibles.

Ponga el ratón en el punto deseado para ver el nombre de la estación.

Haga clic para ver las observaciones y los pronósticos meteorológicos.

Para cambiar el mapa : haga clic en los botones verdes con una cruz de color negro para hacer un zoom, en el botón verde con un guión para alejar o en las flechas verdes para mapas adyacentes.


METAR-TAF: